Airfield :
LOGIN :

Register | Disclaimer

   EN    FR    IT 

 










Legend :    VFR   Marginal VFR   IFR   Intensive IFR   Very Intensive IFR
Visi :
Ceiling :
>= 8 km
>= 3000ft
5 to 8 km
1000 to 3000 ft
1500m to 5 km
500 to 1000 ft
800 to 1500m
200 to 500 ft
< 800m
< 200 ft
Symbols :   Thunderstorms  Fog  Heavy snow  Heavy precipitations  Wind > 20 kt
SIGMETs :     Misc.  Thunderstorms  Icing  Turbulence  Mountain Waves  Volcanic Ashes







- Airport Elevation : 358 ft
- Download approach charts


EGTC - Cranfield

CURRENT METAR :
  • 161120Z 22013KT 9999 -DZ BKN007 09/08 Q1002

EXPIRED METARs :
  • 161050Z 21015KT 2500 -DZ BR BKN005 09/09 Q1003
  • 161020Z 21014KT 2500 -DZ BR BKN005 08/08 Q1003
  • 160950Z 21013KT 3000 -DZ BR BKN007 08/08 Q1003
  • 160920Z 21014KT 2500 -DZ BR BKN009 08/08 Q1004
  • 160850Z 22014KT 9999 BKN010 08/08 Q1004

TAF TAF EGTC
Valid from the 16 at 12:00 until the 16 at 19:00 UTC


161108Z 1612/1619 22014KT 9999 SCT016
TEMPO 1612/1618 5000 RA BKN010
PROB30
TEMPO 1612/1618 23015G25KT 4000 +RA BKN008
BECMG 1613/1616 30012KT
BECMG 1616/1619 24008KT
No reported NOTAMs for that airfield.



MET'MAP, your aeronautical weather chart ! - Copyright ORBIFLY December 2007 - Disclaimer

ORBIFLY MET'MAP TEAM :

Programming & Development : Alexandra Zaïnal
Concept & Development : Baudouin d'Aumeries
Co-Development & Prog : Marc-Olivier Méhu
Technical & hardware support : Manuel Goepfert

Contact : metmap@orbifly.com




SOURCES & CREDITS :

   NOAA